createdAt,value
2022-10-29T00:00:44.904Z,77.59
2022-10-29T00:03:16.348Z,77.86
2022-10-29T00:05:42.664Z,77.59
2022-10-29T00:08:09.069Z,77.84
2022-10-29T00:10:35.457Z,77.83
2022-10-29T00:13:01.826Z,77.55
2022-10-29T00:15:28.067Z,77.97
2022-10-29T00:17:54.677Z,77.98
2022-10-29T00:20:21.448Z,77.60
2022-10-29T00:22:47.776Z,77.97
2022-10-29T00:25:14.126Z,77.61
2022-10-29T00:27:40.506Z,77.98
2022-10-29T00:30:06.836Z,77.70
2022-10-29T00:32:33.177Z,77.49
2022-10-29T00:34:59.764Z,77.73
2022-10-29T00:37:26.059Z,77.69
2022-10-29T00:39:53.107Z,77.39
2022-10-29T00:42:19.597Z,77.15
2022-10-29T00:44:45.863Z,77.18
2022-10-29T00:47:12.133Z,77.56
2022-10-29T00:49:38.457Z,77.65
2022-10-29T00:52:05.430Z,77.42
2022-10-29T00:54:31.695Z,77.75
2022-10-29T00:56:58.015Z,77.30
2022-10-29T00:59:24.352Z,77.28
2022-10-29T01:01:50.714Z,77.48
2022-10-29T01:04:17.327Z,77.79
2022-10-29T01:06:43.866Z,77.28
2022-10-29T01:09:10.196Z,77.55
2022-10-29T01:11:36.654Z,77.22
2022-10-29T01:14:03.799Z,77.03
2022-10-29T01:16:30.140Z,77.51
2022-10-29T01:18:56.575Z,77.43
2022-10-29T01:21:22.982Z,77.39
2022-10-29T01:23:49.350Z,77.64
2022-10-29T01:26:15.698Z,77.47
2022-10-29T01:28:42.081Z,77.35
2022-10-29T01:31:08.444Z,77.29
2022-10-29T01:33:34.712Z,77.33
2022-10-29T01:36:01.199Z,77.02
2022-10-29T01:38:27.660Z,77.43
2022-10-29T01:40:53.962Z,77.21
2022-10-29T01:45:51.851Z,76.99
2022-10-29T01:48:18.079Z,77.24
2022-10-29T01:50:44.446Z,77.51
2022-10-29T01:53:10.717Z,77.11
2022-10-29T01:55:37.009Z,77.03
2022-10-29T01:58:03.291Z,77.09
2022-10-29T02:00:29.995Z,77.44
2022-10-29T02:02:56.925Z,77.41
2022-10-29T02:05:23.543Z,77.50
2022-10-29T02:07:49.903Z,77.34
2022-10-29T02:10:16.374Z,77.03
2022-10-29T02:12:42.839Z,77.43
2022-10-29T02:15:09.362Z,77.36
2022-10-29T02:17:35.654Z,77.43
2022-10-29T02:20:02.004Z,77.06
2022-10-29T02:22:28.816Z,77.50
2022-10-29T02:24:55.926Z,77.23
2022-10-29T02:27:22.342Z,76.82
2022-10-29T02:29:48.877Z,77.15
2022-10-29T02:32:15.273Z,77.06
2022-10-29T02:34:41.546Z,77.04
2022-10-29T02:37:07.851Z,77.35
2022-10-29T02:39:34.138Z,77.37
2022-10-29T02:42:00.440Z,77.32
2022-10-29T02:44:26.783Z,77.15
2022-10-29T02:46:53.204Z,76.92
2022-10-29T02:49:19.458Z,77.38
2022-10-29T02:51:45.962Z,77.10
2022-10-29T02:54:12.383Z,77.26
2022-10-29T02:56:38.674Z,77.28
2022-10-29T02:59:07.710Z,76.98
2022-10-29T03:01:37.553Z,76.96
2022-10-29T03:04:04.086Z,77.03
2022-10-29T03:06:30.367Z,77.33
2022-10-29T03:08:56.768Z,77.35
2022-10-29T03:11:23.046Z,77.37
2022-10-29T03:13:49.559Z,77.30
2022-10-29T03:16:15.999Z,77.33
2022-10-29T03:18:42.319Z,77.32
2022-10-29T03:21:08.576Z,77.23
2022-10-29T03:23:35.099Z,77.35
2022-10-29T03:26:01.444Z,77.03
2022-10-29T03:28:27.763Z,77.40
2022-10-29T03:30:54.133Z,77.22
2022-10-29T03:33:20.939Z,77.34
2022-10-29T03:35:47.480Z,77.02
2022-10-29T03:38:13.848Z,77.06
2022-10-29T03:40:40.244Z,77.13
2022-10-29T03:43:06.478Z,77.19
2022-10-29T03:45:32.735Z,77.34
2022-10-29T03:47:59.210Z,76.97
2022-10-29T03:50:25.767Z,77.23
2022-10-29T03:52:52.128Z,76.92
2022-10-29T03:55:18.536Z,76.98
2022-10-29T03:57:44.950Z,77.01
2022-10-29T04:00:11.283Z,77.01
2022-10-29T04:02:38.050Z,77.02
2022-10-29T04:05:04.497Z,77.10
2022-10-29T04:07:30.809Z,76.99
2022-10-29T04:09:57.285Z,76.61
2022-10-29T04:12:23.706Z,76.69
2022-10-29T04:17:21.314Z,76.84
2022-10-29T04:19:47.847Z,76.83
2022-10-29T04:28:41.938Z,76.93
2022-10-29T04:30:33.392Z,76.89
2022-10-29T04:32:59.993Z,76.63
2022-10-29T04:35:26.675Z,76.97
2022-10-29T04:37:52.940Z,76.52
2022-10-29T04:40:19.244Z,76.86
2022-10-29T04:42:45.850Z,77.00
2022-10-29T04:45:12.156Z,76.79
2022-10-29T04:47:38.439Z,76.96
2022-10-29T04:50:05.751Z,76.63
2022-10-29T04:52:32.307Z,76.88
2022-10-29T04:54:59.464Z,76.65
2022-10-29T04:57:25.769Z,76.52
2022-10-29T04:59:52.180Z,76.92
2022-10-29T05:02:18.456Z,76.76
2022-10-29T05:04:44.918Z,76.64
2022-10-29T05:07:11.231Z,76.37
2022-10-29T05:09:37.522Z,76.68
2022-10-29T05:12:03.774Z,76.74
2022-10-29T05:14:30.142Z,76.65
2022-10-29T05:16:56.434Z,76.56
2022-10-29T05:19:22.893Z,76.69
2022-10-29T05:21:49.350Z,76.39
2022-10-29T05:24:15.648Z,76.38
2022-10-29T05:26:42.260Z,76.54
2022-10-29T05:29:08.718Z,76.34
2022-10-29T05:31:35.094Z,76.78
2022-10-29T05:34:01.492Z,76.27
2022-10-29T05:36:28.159Z,76.64
2022-10-29T05:38:54.476Z,76.62
2022-10-29T05:41:20.751Z,76.12
2022-10-29T05:43:47.280Z,76.21
2022-10-29T05:46:13.628Z,76.58
2022-10-29T05:48:39.880Z,76.07
2022-10-29T05:51:06.333Z,76.22
2022-10-29T05:53:32.832Z,76.02
2022-10-29T05:55:59.313Z,76.19
2022-10-29T05:58:25.662Z,76.01
2022-10-29T06:00:51.978Z,76.04
2022-10-29T06:03:18.326Z,76.01
2022-10-29T06:05:44.691Z,76.30
2022-10-29T06:08:11.031Z,75.94
2022-10-29T06:10:37.571Z,76.02
2022-10-29T06:13:04.415Z,75.94
2022-10-29T06:15:30.987Z,75.88
2022-10-29T06:17:57.770Z,75.97
2022-10-29T06:20:24.411Z,75.74
2022-10-29T06:22:50.704Z,75.98
2022-10-29T06:25:17.040Z,76.15
2022-10-29T06:27:43.448Z,76.25
2022-10-29T06:30:09.743Z,76.03
2022-10-29T06:32:36.417Z,75.81
2022-10-29T06:35:02.740Z,75.84
2022-10-29T06:37:29.004Z,75.96
2022-10-29T06:39:56.995Z,76.06
2022-10-29T06:42:23.577Z,75.98
2022-10-29T06:44:49.873Z,75.84
2022-10-29T06:47:16.204Z,75.91
2022-10-29T06:49:42.545Z,75.77
2022-10-29T06:52:08.964Z,75.99
2022-10-29T06:54:35.468Z,75.81
2022-10-29T06:57:01.778Z,75.77
2022-10-29T06:59:28.028Z,75.83
2022-10-29T07:01:55.226Z,75.76
2022-10-29T07:04:21.595Z,75.62
2022-10-29T07:06:47.909Z,76.01
2022-10-29T07:09:14.235Z,76.19
2022-10-29T07:11:40.570Z,76.08
2022-10-29T07:14:06.918Z,76.06
2022-10-29T07:16:33.524Z,75.76
2022-10-29T07:18:59.791Z,75.59
2022-10-29T07:21:26.090Z,75.79
2022-10-29T07:23:53.585Z,76.07
2022-10-29T07:26:20.284Z,75.85
2022-10-29T07:28:46.567Z,75.75
2022-10-29T07:31:12.900Z,75.83
2022-10-29T07:33:39.130Z,75.53
2022-10-29T07:36:05.354Z,75.82
2022-10-29T07:38:31.875Z,76.03
2022-10-29T07:40:58.313Z,75.93
2022-10-29T07:43:24.673Z,75.78
2022-10-29T07:45:50.941Z,75.82
2022-10-29T07:48:17.191Z,75.96
2022-10-29T07:50:43.482Z,75.86
2022-10-29T07:53:09.744Z,75.99
2022-10-29T07:55:36.039Z,75.95
2022-10-29T07:58:02.434Z,75.81
2022-10-29T08:00:28.969Z,75.79
2022-10-29T08:02:55.473Z,75.87
2022-10-29T08:05:21.900Z,75.78
2022-10-29T08:07:48.242Z,75.66
2022-10-29T08:10:15.367Z,75.55
2022-10-29T08:12:41.679Z,75.83
2022-10-29T08:15:07.940Z,75.32
2022-10-29T08:17:34.278Z,75.65
2022-10-29T08:20:00.622Z,75.53
2022-10-29T08:22:27.074Z,75.77
2022-10-29T08:24:53.833Z,75.98
2022-10-29T08:27:20.087Z,75.76
2022-10-29T08:29:47.214Z,76.03
2022-10-29T08:32:13.495Z,76.06
2022-10-29T08:34:40.541Z,76.36
2022-10-29T08:37:07.237Z,76.41
2022-10-29T08:39:34.334Z,76.68
2022-10-29T08:42:00.687Z,76.31
2022-10-29T08:44:27.584Z,76.72
2022-10-29T08:46:53.866Z,76.79
2022-10-29T08:49:20.229Z,76.81
2022-10-29T08:51:46.495Z,76.83
2022-10-29T08:59:35.427Z,77.07
2022-10-29T09:02:01.759Z,77.04
2022-10-29T09:04:28.253Z,76.87
2022-10-29T09:06:54.524Z,76.61
2022-10-29T09:09:21.228Z,76.59
2022-10-29T09:11:47.590Z,76.70
2022-10-29T09:14:13.887Z,76.10
2022-10-29T09:19:13.332Z,75.62
2022-10-29T09:21:39.626Z,76.36
2022-10-29T09:24:05.894Z,76.37
2022-10-29T09:26:32.270Z,76.57
2022-10-29T09:28:58.557Z,76.83
2022-10-29T09:31:24.906Z,76.76
2022-10-29T09:33:51.305Z,76.45
2022-10-29T09:36:17.612Z,76.99
2022-10-29T09:38:43.904Z,76.47
2022-10-29T09:41:10.361Z,76.93
2022-10-29T09:43:36.611Z,76.62
2022-10-29T09:46:02.894Z,76.89
2022-10-29T09:48:29.235Z,76.35
2022-10-29T09:50:55.638Z,76.63
2022-10-29T09:53:21.971Z,77.09
2022-10-29T09:55:48.487Z,76.14
2022-10-29T09:58:14.823Z,75.93
2022-10-29T10:00:41.161Z,76.87
2022-10-29T10:03:07.653Z,77.20
2022-10-29T10:05:34.164Z,77.02
2022-10-29T10:08:02.126Z,77.27
2022-10-29T10:10:28.655Z,77.38
2022-10-29T10:15:45.322Z,76.94
2022-10-29T10:18:11.726Z,77.20
2022-10-29T10:20:38.163Z,77.24
2022-10-29T10:23:04.424Z,76.89
2022-10-29T10:25:30.752Z,77.26
2022-10-29T10:27:57.393Z,77.22
2022-10-29T10:30:24.051Z,77.27
2022-10-29T10:32:50.415Z,77.57
2022-10-29T10:35:16.717Z,77.64
2022-10-29T10:40:34.008Z,77.46
2022-10-29T10:43:03.089Z,77.64
2022-10-29T10:45:33.133Z,77.83
2022-10-29T10:48:00.323Z,77.58
2022-10-29T10:50:27.011Z,78.01
2022-10-29T10:52:53.470Z,78.00
2022-10-29T10:55:19.925Z,78.05
2022-10-29T10:57:46.681Z,78.14
2022-10-29T11:00:12.919Z,77.73
2022-10-29T11:02:39.275Z,78.34
2022-10-29T11:05:07.964Z,78.32
2022-10-29T11:07:34.568Z,78.42
2022-10-29T11:10:00.919Z,78.27
2022-10-29T11:12:27.589Z,78.14
2022-10-29T11:14:53.974Z,78.25
2022-10-29T11:17:20.327Z,78.72
2022-10-29T11:19:46.633Z,78.66
2022-10-29T11:24:46.651Z,78.41
2022-10-29T11:27:13.034Z,78.77
2022-10-29T11:29:39.416Z,78.28
2022-10-29T11:32:05.705Z,78.73
2022-10-29T11:34:32.513Z,78.52
2022-10-29T11:36:58.951Z,78.81
2022-10-29T11:39:25.288Z,79.13
2022-10-29T11:41:51.662Z,78.59
2022-10-29T11:44:18.077Z,78.87
2022-10-29T11:46:44.518Z,78.81
2022-10-29T11:49:10.985Z,78.71
2022-10-29T11:51:37.364Z,78.54
2022-10-29T11:54:03.923Z,78.88
2022-10-29T11:56:30.273Z,78.78
2022-10-29T11:58:56.673Z,78.80
2022-10-29T12:01:23.069Z,79.00
2022-10-29T12:03:49.672Z,78.74
2022-10-29T12:08:51.931Z,78.86
2022-10-29T12:11:19.606Z,79.19
2022-10-29T12:13:46.235Z,78.95
2022-10-29T12:16:12.535Z,78.55
2022-10-29T12:18:40.495Z,79.28
2022-10-29T12:21:06.781Z,78.83
2022-10-29T12:23:33.119Z,79.18
2022-10-29T12:25:59.455Z,79.05
2022-10-29T12:28:25.770Z,79.08
2022-10-29T12:30:52.062Z,79.27
2022-10-29T12:33:18.341Z,79.11
2022-10-29T12:35:44.789Z,79.20
2022-10-29T12:38:11.122Z,79.26
2022-10-29T12:40:37.351Z,78.90
2022-10-29T12:43:03.917Z,79.06
2022-10-29T12:45:30.256Z,78.91
2022-10-29T12:47:56.772Z,79.36
2022-10-29T12:50:23.263Z,79.24
2022-10-29T12:52:49.660Z,79.23
2022-10-29T12:55:15.920Z,79.15
2022-10-29T12:57:42.206Z,79.01
2022-10-29T13:00:08.870Z,78.96
2022-10-29T13:02:35.225Z,79.02
2022-10-29T13:05:01.652Z,78.72
2022-10-29T13:07:28.093Z,79.04
2022-10-29T13:09:54.460Z,78.70
2022-10-29T13:12:20.760Z,79.01
2022-10-29T13:14:47.107Z,78.75
2022-10-29T13:17:13.410Z,78.92
2022-10-29T13:19:40.001Z,78.64
2022-10-29T13:22:06.344Z,78.86
2022-10-29T13:24:32.724Z,78.62
2022-10-29T13:26:59.004Z,78.75
2022-10-29T13:29:25.356Z,78.70
2022-10-29T13:31:51.872Z,78.90
2022-10-29T13:34:18.201Z,78.69
2022-10-29T13:36:44.550Z,78.70
2022-10-29T13:39:11.107Z,78.74
2022-10-29T13:41:37.487Z,78.20
2022-10-29T13:44:03.809Z,78.58
2022-10-29T13:46:30.071Z,78.29
2022-10-29T13:48:56.384Z,78.13
2022-10-29T13:51:22.788Z,78.36
2022-10-29T13:53:49.177Z,78.54
2022-10-29T13:56:15.770Z,78.66
2022-10-29T13:58:42.077Z,78.47
2022-10-29T14:01:08.438Z,78.49
2022-10-29T14:03:34.856Z,78.35
2022-10-29T14:06:01.202Z,78.30
2022-10-29T14:08:27.511Z,78.42
2022-10-29T14:10:54.050Z,78.41
2022-10-29T14:13:23.686Z,78.42
2022-10-29T14:15:51.375Z,78.31
2022-10-29T14:18:17.741Z,77.96
2022-10-29T14:20:44.084Z,78.02
2022-10-29T14:23:10.432Z,77.95
2022-10-29T14:25:38.086Z,78.21
2022-10-29T14:28:06.444Z,78.20
2022-10-29T14:30:32.896Z,78.15
2022-10-29T14:32:59.392Z,77.96
2022-10-29T14:35:25.946Z,78.14
2022-10-29T14:37:52.222Z,78.02
2022-10-29T14:40:18.981Z,78.29
2022-10-29T14:42:45.256Z,77.82
2022-10-29T14:45:11.673Z,77.75
2022-10-29T14:47:38.107Z,78.30
2022-10-29T14:50:04.421Z,78.18
2022-10-29T14:52:30.867Z,78.14
2022-10-29T14:54:57.252Z,77.99
2022-10-29T14:57:23.714Z,77.62
2022-10-29T14:59:50.093Z,77.61
2022-10-29T15:05:07.234Z,77.69
2022-10-29T15:07:34.510Z,77.80
2022-10-29T15:10:01.935Z,77.81
2022-10-29T15:12:28.323Z,77.83
2022-10-29T15:14:54.708Z,77.89
2022-10-29T15:17:21.035Z,77.59
2022-10-29T15:19:47.374Z,78.04
2022-10-29T15:22:13.852Z,77.54
2022-10-29T15:24:40.163Z,77.83
2022-10-29T15:27:06.660Z,77.80
2022-10-29T15:29:36.213Z,77.81
2022-10-29T15:32:04.914Z,77.80
2022-10-29T15:34:31.294Z,77.79
2022-10-29T15:36:57.940Z,77.74
2022-10-29T15:39:24.204Z,77.74
2022-10-29T15:41:50.569Z,77.76
2022-10-29T15:44:16.983Z,77.92
2022-10-29T15:46:43.287Z,77.79
2022-10-29T15:49:09.610Z,77.72
2022-10-29T15:51:36.010Z,77.68
2022-10-29T15:54:02.344Z,77.27
2022-10-29T15:56:28.589Z,77.51
2022-10-29T15:58:54.951Z,77.44
2022-10-29T16:01:22.086Z,77.39
2022-10-29T16:03:48.736Z,77.52
2022-10-29T16:06:15.388Z,77.80
2022-10-29T16:08:41.670Z,77.65
2022-10-29T16:11:07.958Z,77.64
2022-10-29T16:13:34.752Z,77.64
2022-10-29T16:16:01.048Z,77.36
2022-10-29T16:18:27.847Z,77.39
2022-10-29T16:20:54.114Z,77.59
2022-10-29T16:23:20.450Z,77.62
2022-10-29T16:25:46.836Z,77.23
2022-10-29T16:28:13.130Z,77.27
2022-10-29T16:33:10.797Z,77.42
2022-10-29T16:35:37.070Z,77.06
2022-10-29T16:38:03.512Z,77.32
2022-10-29T16:40:29.964Z,77.38
2022-10-29T16:42:57.072Z,77.08
2022-10-29T16:45:23.719Z,77.30
2022-10-29T16:47:49.990Z,77.02
2022-10-29T16:50:16.277Z,77.09
2022-10-29T16:52:42.599Z,77.27
2022-10-29T16:55:08.911Z,77.20
2022-10-29T16:57:35.191Z,77.22
2022-10-29T17:00:01.613Z,76.79
2022-10-29T17:02:27.973Z,76.82
2022-10-29T17:04:54.417Z,77.16
2022-10-29T17:07:20.743Z,77.05
2022-10-29T17:09:47.094Z,76.88
2022-10-29T17:12:13.382Z,76.59
2022-10-29T17:14:39.619Z,77.04
2022-10-29T17:17:05.887Z,76.59
2022-10-29T17:19:32.187Z,76.83
2022-10-29T17:21:58.543Z,76.56
2022-10-29T17:24:24.807Z,76.49
2022-10-29T17:26:51.396Z,76.58
2022-10-29T17:29:17.747Z,76.46
2022-10-29T17:31:44.081Z,76.69
2022-10-29T17:34:10.519Z,76.50
2022-10-29T17:36:36.830Z,76.61
2022-10-29T17:39:03.497Z,76.85
2022-10-29T17:41:29.942Z,76.62
2022-10-29T17:43:56.599Z,76.71
2022-10-29T17:46:23.166Z,76.61
2022-10-29T17:48:50.032Z,76.76
2022-10-29T17:51:16.335Z,76.33
2022-10-29T17:53:42.655Z,76.38
2022-10-29T17:56:08.967Z,76.36
2022-10-29T17:58:35.248Z,76.58
2022-10-29T18:01:01.829Z,76.67
2022-10-29T18:03:28.247Z,76.68
2022-10-29T18:05:54.492Z,76.37
2022-10-29T18:08:20.817Z,76.29
2022-10-29T18:10:47.120Z,76.80
2022-10-29T18:13:13.422Z,76.29
2022-10-29T18:15:39.856Z,76.27
2022-10-29T18:18:06.385Z,76.40
2022-10-29T18:20:32.699Z,76.45
2022-10-29T18:22:59.359Z,76.77
2022-10-29T18:25:26.040Z,76.39
2022-10-29T18:27:52.318Z,76.65
2022-10-29T18:30:18.728Z,76.40
2022-10-29T18:32:45.478Z,76.87
2022-10-29T18:35:11.784Z,76.79
2022-10-29T18:37:38.174Z,76.40
2022-10-29T18:40:04.421Z,76.73
2022-10-29T18:42:30.757Z,76.74
2022-10-29T18:44:57.132Z,76.71
2022-10-29T18:47:23.658Z,76.55
2022-10-29T18:49:50.535Z,76.31
2022-10-29T18:52:16.805Z,76.85
2022-10-29T18:54:43.146Z,76.50
2022-10-29T18:57:09.522Z,76.53
2022-10-29T18:59:35.855Z,76.38
2022-10-29T19:02:02.256Z,76.66
2022-10-29T19:04:28.759Z,76.61
2022-10-29T19:06:54.998Z,76.77
2022-10-29T19:09:21.281Z,76.54
2022-10-29T19:11:47.510Z,76.34
2022-10-29T19:14:14.058Z,76.48
2022-10-29T19:16:40.967Z,76.87
2022-10-29T19:19:07.766Z,76.71
2022-10-29T19:21:34.520Z,76.74
2022-10-29T19:24:00.847Z,76.75
2022-10-29T19:26:27.301Z,77.03
2022-10-29T19:28:53.937Z,76.66
2022-10-29T19:31:20.384Z,76.68
2022-10-29T19:33:46.683Z,76.62
2022-10-29T19:36:12.965Z,76.97
2022-10-29T19:38:39.305Z,76.81
2022-10-29T19:41:05.696Z,76.76
2022-10-29T19:43:32.366Z,76.58
2022-10-29T19:45:58.816Z,76.54
2022-10-29T19:48:25.110Z,76.60
2022-10-29T19:50:51.530Z,76.62
2022-10-29T19:53:17.803Z,76.83
2022-10-29T19:55:44.148Z,76.85
2022-10-29T19:58:10.545Z,76.59
2022-10-29T20:00:36.823Z,76.50
2022-10-29T20:03:03.166Z,76.76
2022-10-29T20:05:29.481Z,76.54
2022-10-29T20:07:56.056Z,76.54
2022-10-29T20:10:22.640Z,76.80
2022-10-29T20:12:48.923Z,76.60
2022-10-29T20:15:15.314Z,76.69
2022-10-29T20:17:41.643Z,76.82
2022-10-29T20:20:12.756Z,76.79
2022-10-29T20:22:42.403Z,76.82
2022-10-29T20:25:08.684Z,76.54
2022-10-29T20:27:35.075Z,76.51
2022-10-29T20:30:01.648Z,76.44
2022-10-29T20:32:28.005Z,76.60
2022-10-29T20:34:54.302Z,76.89
2022-10-29T20:37:21.654Z,76.37
2022-10-29T20:39:48.171Z,76.53
2022-10-29T20:42:14.506Z,76.85
2022-10-29T20:44:40.896Z,76.81
2022-10-29T20:47:07.259Z,76.89
2022-10-29T20:49:33.529Z,76.52
2022-10-29T20:52:00.115Z,76.96
2022-10-29T20:54:26.884Z,76.80
2022-10-29T20:56:53.600Z,76.70
2022-10-29T20:59:20.008Z,76.57
2022-10-29T21:01:46.414Z,76.54
2022-10-29T21:04:12.788Z,76.75
2022-10-29T21:06:39.059Z,76.73
2022-10-29T21:09:05.440Z,76.99
2022-10-29T21:11:31.828Z,76.91
2022-10-29T21:13:58.151Z,76.89
2022-10-29T21:16:24.437Z,76.97
2022-10-29T21:18:50.702Z,76.63
2022-10-29T21:21:20.350Z,76.59
2022-10-29T21:23:47.026Z,76.99
2022-10-29T21:26:13.600Z,76.54
2022-10-29T21:28:40.126Z,76.80
2022-10-29T21:31:06.394Z,76.86
2022-10-29T21:33:32.952Z,76.91
2022-10-29T21:35:59.327Z,76.85
2022-10-29T21:38:25.691Z,76.83
2022-10-29T21:40:51.923Z,76.46
2022-10-29T21:43:18.240Z,76.88
2022-10-29T21:45:44.528Z,76.51
2022-10-29T21:48:10.812Z,76.67
2022-10-29T21:50:37.156Z,76.53
2022-10-29T21:53:03.488Z,76.76
2022-10-29T21:55:29.903Z,76.41
2022-10-29T21:57:56.445Z,76.64
2022-10-29T22:00:22.910Z,76.52
2022-10-29T22:02:49.527Z,76.69
2022-10-29T22:05:15.930Z,76.75
2022-10-29T22:07:42.364Z,76.72
2022-10-29T22:10:08.622Z,76.67
2022-10-29T22:12:35.054Z,76.36
2022-10-29T22:15:01.474Z,76.50
2022-10-29T22:17:27.868Z,76.37
2022-10-29T22:19:54.335Z,76.35
2022-10-29T22:22:20.824Z,76.37
2022-10-29T22:24:47.152Z,76.52
2022-10-29T22:27:13.504Z,76.25
2022-10-29T22:29:39.811Z,76.64
2022-10-29T22:32:06.060Z,76.76
2022-10-29T22:34:32.711Z,76.34
2022-10-29T22:36:59.087Z,76.34
2022-10-29T22:39:25.550Z,76.68
2022-10-29T22:41:52.033Z,76.79
2022-10-29T22:44:18.682Z,76.69
2022-10-29T22:46:45.036Z,76.34
2022-10-29T22:49:11.424Z,76.42
2022-10-29T22:51:37.879Z,76.78
2022-10-29T22:54:04.160Z,76.41
2022-10-29T22:56:30.446Z,76.56
2022-10-29T22:58:56.760Z,76.63
2022-10-29T23:01:23.123Z,76.66
2022-10-29T23:03:49.552Z,76.22
2022-10-29T23:06:15.823Z,76.71
2022-10-29T23:08:44.216Z,76.75
2022-10-29T23:11:10.919Z,76.59
2022-10-29T23:13:37.333Z,76.48
2022-10-29T23:16:03.776Z,76.62
2022-10-29T23:18:30.128Z,76.09
2022-10-29T23:20:56.558Z,76.46
2022-10-29T23:23:22.833Z,76.43
2022-10-29T23:25:49.123Z,76.50
2022-10-29T23:28:15.366Z,76.08
2022-10-29T23:30:41.907Z,76.36
2022-10-29T23:33:08.276Z,76.26
2022-10-29T23:35:34.609Z,76.53
2022-10-29T23:38:01.432Z,76.51
2022-10-29T23:40:27.784Z,76.08
2022-10-29T23:42:54.180Z,76.50
2022-10-29T23:45:20.571Z,76.43
2022-10-29T23:47:46.855Z,76.18
2022-10-29T23:50:13.196Z,76.61
2022-10-29T23:52:39.526Z,76.30
2022-10-29T23:55:05.806Z,76.32
2022-10-29T23:57:32.776Z,75.99
2022-10-29T23:59:59.094Z,76.25
